Time;durP1;ratioP1;P1;durP2;ratioP2;P2;SDS_P1;SDS_P2;PMS_P1;PMS_P2;Temp;Humidity;BMP_temperature;BMP_pressure;BME280_temperature;BME280_humidity;BME280_pressure;Samples;Min_cycle;Max_cycle;Signal;HPM_P1;HPM_P2
2022/01/28 00:05:27;;;;;;;60.00;49.42;;;16.30;56.20;;;;;;4878433;28;91236;-71
2022/01/28 00:07:54;;;;;;;59.40;49.08;;;16.30;56.20;;;;;;4894192;28;92714;-72
2022/01/28 00:10:22;;;;;;;59.75;48.97;;;16.30;56.20;;;;;;4895987;28;91294;-71
2022/01/28 00:15:28;;;;;;;59.80;48.80;;;16.30;56.20;;;;;;4896655;28;92790;-72
2022/01/28 00:39:39;;;;;;;58.55;48.67;;;16.00;56.70;;;;;;4916422;28;90399;-72
2022/01/28 00:42:05;;;;;;;58.05;48.42;;;16.00;56.90;;;;;;4903378;28;90960;-72
2022/01/28 00:44:31;;;;;;;58.33;48.65;;;15.90;56.80;;;;;;4874657;28;92912;-72
2022/01/28 00:46:57;;;;;;;59.05;48.60;;;15.90;56.80;;;;;;4894433;28;92283;-72
2022/01/28 00:49:24;;;;;;;58.05;48.63;;;15.90;56.70;;;;;;4913290;28;91874;-72
2022/01/28 00:51:49;;;;;;;59.03;48.38;;;15.80;56.80;;;;;;4907377;28;92636;-71
2022/01/28 00:54:17;;;;;;;59.92;48.83;;;15.80;56.80;;;;;;4885055;28;93869;-72
2022/01/28 00:56:43;;;;;;;59.35;48.67;;;15.80;56.80;;;;;;4902550;28;90620;-72
2022/01/28 00:59:08;;;;;;;58.50;48.67;;;15.80;56.90;;;;;;4890684;28;94463;-72
2022/01/28 01:01:34;;;;;;;57.15;48.20;;;15.80;57.00;;;;;;4896134;28;89889;-72
2022/01/28 01:04:00;;;;;;;58.47;48.60;;;15.70;57.60;;;;;;4917181;28;92552;-71
2022/01/28 01:06:27;;;;;;;59.67;48.40;;;15.70;57.10;;;;;;4902894;28;91498;-72
2022/01/28 01:08:53;;;;;;;57.72;48.47;;;15.70;57.10;;;;;;4899909;28;91640;-72
2022/01/28 01:11:21;;;;;;;59.35;48.58;;;15.70;57.20;;;;;;4883966;28;91942;-71
2022/01/28 01:13:49;;;;;;;58.42;48.47;;;15.70;57.10;;;;;;4910370;28;91432;-72
2022/01/28 01:16:20;;;;;;;57.90;48.40;;;15.70;57.00;;;;;;4896136;28;90257;-72
2022/01/28 01:21:18;;;;;;;57.53;48.55;;;15.60;57.10;;;;;;4895457;28;91541;-72
2022/01/28 01:23:55;;;;;;;57.90;48.45;;;15.70;57.10;;;;;;4894264;28;95279;-72
2022/01/28 01:26:30;;;;;;;57.97;48.05;;;15.60;57.20;;;;;;4908073;28;93823;-71
2022/01/28 01:28:56;;;;;;;58.58;48.33;;;15.50;57.30;;;;;;4903398;28;90579;-71
2022/01/28 01:31:22;;;;;;;58.03;48.53;;;15.50;57.30;;;;;;4888706;28;96480;-72
2022/01/28 01:33:55;;;;;;;58.03;48.55;;;15.60;57.10;;;;;;4902054;28;93490;-71
2022/01/28 01:36:21;;;;;;;57.78;48.30;;;15.50;57.20;;;;;;4907172;28;94394;-72
2022/01/28 01:38:47;;;;;;;57.17;48.00;;;15.50;57.10;;;;;;4917409;28;90665;-71
2022/01/28 01:41:19;;;;;;;57.50;48.03;;;15.50;57.20;;;;;;4900853;28;90787;-72
2022/01/28 01:54:13;;;;;;;57.75;48.47;;;15.60;57.10;;;;;;4907951;28;92299;-71
2022/01/28 01:56:40;;;;;;;58.38;48.38;;;15.60;57.10;;;;;;4897643;28;90284;-72
2022/01/28 01:59:08;;;;;;;58.72;48.47;;;15.80;56.70;;;;;;4909433;28;91776;-71
2022/01/28 02:01:34;;;;;;;57.20;48.30;;;16.00;56.30;;;;;;4907809;28;92520;-71
2022/01/28 02:04:00;;;;;;;59.85;48.35;;;16.20;55.70;;;;;;4890075;28;92439;-71
2022/01/28 02:06:25;;;;;;;56.85;48.30;;;16.20;55.60;;;;;;4898421;28;90986;-72
2022/01/28 02:08:51;;;;;;;57.92;48.35;;;16.20;55.80;;;;;;4864874;28;90661;-71
2022/01/28 02:11:17;;;;;;;57.40;48.20;;;16.40;55.20;;;;;;4893080;28;91390;-71
2022/01/28 02:13:50;;;;;;;57.25;48.10;;;16.40;55.30;;;;;;4874239;28;92906;-71
2022/01/28 02:16:17;;;;;;;59.00;48.03;;;16.40;55.30;;;;;;4904553;28;95919;-71
2022/01/28 02:18:43;;;;;;;56.58;48.13;;;16.40;55.00;;;;;;4894223;28;91039;-71
2022/01/28 02:21:11;;;;;;;57.88;48.30;;;16.40;54.80;;;;;;4887460;28;90033;-72
2022/01/28 02:23:37;;;;;;;56.50;47.88;;;16.40;55.00;;;;;;4905249;28;91430;-71
2022/01/28 02:26:04;;;;;;;57.42;48.28;;;16.50;54.60;;;;;;4890871;28;91399;-72
2022/01/28 02:28:34;;;;;;;56.13;47.50;;;16.50;54.70;;;;;;4903319;28;91213;-71
2022/01/28 02:31:18;;;;;;;56.40;47.35;;;16.40;54.70;;;;;;961093;28;10099628;-71
2022/01/28 02:33:43;;;;;;;56.08;47.88;;;16.40;54.70;;;;;;4555253;28;10087113;-71
2022/01/28 02:36:09;;;;;;;55.58;47.45;;;16.40;54.50;;;;;;4882477;28;94615;-71
2022/01/28 02:38:35;;;;;;;56.65;48.15;;;16.40;54.60;;;;;;4868488;28;91084;-71
2022/01/28 02:41:02;;;;;;;57.13;47.90;;;16.30;54.80;;;;;;4886247;28;91037;-71
2022/01/28 02:43:36;;;;;;;56.17;47.95;;;16.30;54.80;;;;;;4879711;28;94003;-70
2022/01/28 02:46:06;;;;;;;55.33;47.38;;;16.30;54.80;;;;;;4885326;28;91857;-71
2022/01/28 02:48:34;;;;;;;56.60;48.08;;;16.30;54.90;;;;;;4886296;28;91655;-71
2022/01/28 02:51:09;;;;;;;57.47;47.88;;;16.20;54.90;;;;;;4891461;28;92773;-72
2022/01/28 02:53:47;;;;;;;56.63;47.70;;;16.20;54.80;;;;;;4894013;28;91927;-71
2022/01/28 02:56:16;;;;;;;56.85;47.95;;;16.10;55.10;;;;;;4896949;28;95328;-71
2022/01/28 02:58:44;;;;;;;57.42;48.13;;;16.10;55.20;;;;;;4891977;28;90346;-71
2022/01/28 03:01:15;;;;;;;57.25;48.03;;;16.00;55.30;;;;;;4874523;28;97385;-71
2022/01/28 03:03:45;;;;;;;56.63;47.73;;;16.10;55.10;;;;;;4893411;28;96433;-71
2022/01/28 03:06:13;;;;;;;57.15;47.88;;;16.10;55.10;;;;;;4905091;28;89724;-71
2022/01/28 03:08:42;;;;;;;56.83;47.70;;;16.00;54.80;;;;;;4901796;28;91199;-71
2022/01/28 03:16:11;;;;;;;55.70;47.45;;;15.90;55.30;;;;;;4905061;28;90225;-71
2022/01/28 03:19:23;;;;;;;56.45;47.80;;;15.80;55.60;;;;;;4879286;28;90503;-71
2022/01/28 03:23:56;;;;;;;56.50;47.83;;;15.70;55.90;;;;;;4896751;28;92599;-71
2022/01/28 03:26:26;;;;;;;56.40;47.53;;;15.70;55.80;;;;;;4901378;28;91304;-71
2022/01/28 03:28:52;;;;;;;57.00;48.03;;;15.70;55.80;;;;;;4885464;28;92490;-71
2022/01/28 03:31:18;;;;;;;56.10;47.78;;;15.60;56.10;;;;;;4890798;28;90431;-71
2022/01/28 03:33:44;;;;;;;55.75;47.47;;;15.70;55.90;;;;;;4876846;28;92467;-72
2022/01/28 03:36:11;;;;;;;56.58;47.53;;;15.70;56.70;;;;;;4884003;28;92430;-71
2022/01/28 03:38:38;;;;;;;57.33;47.92;;;15.60;56.00;;;;;;4883095;28;91423;-71
2022/01/28 03:41:13;;;;;;;55.83;47.70;;;15.60;56.00;;;;;;4869362;28;93567;-71
2022/01/28 03:43:39;;;;;;;56.00;47.63;;;15.60;55.90;;;;;;4893031;28;91356;-71
2022/01/28 03:46:06;;;;;;;55.60;47.63;;;15.50;56.10;;;;;;4901130;28;91803;-71
2022/01/28 03:48:32;;;;;;;55.63;47.55;;;15.50;55.90;;;;;;4878773;28;91789;-71
2022/01/28 03:50:57;;;;;;;56.00;47.85;;;15.50;56.20;;;;;;4877439;28;91737;-71
2022/01/28 03:53:23;;;;;;;54.75;47.33;;;15.40;56.20;;;;;;4896617;28;91246;-72
2022/01/28 03:55:51;;;;;;;56.35;47.65;;;15.50;56.30;;;;;;4890589;28;90891;-72
2022/01/28 03:58:16;;;;;;;55.92;47.72;;;15.40;56.00;;;;;;4903800;28;91193;-71
2022/01/28 04:00:42;;;;;;;55.25;47.25;;;15.40;56.30;;;;;;4891294;28;91344;-72
2022/01/28 04:11:32;;;;;;;55.40;47.38;;;15.20;56.40;;;;;;4883286;28;90906;-71
2022/01/28 04:15:04;;;;;;;;;;;15.20;56.50;;;;;;4898288;28;94602;-71
2022/01/28 04:19:37;;;;;;;54.85;47.45;;;15.20;56.90;;;;;;4893404;28;90706;-71
2022/01/28 04:22:03;;;;;;;55.30;47.50;;;15.20;56.80;;;;;;4889991;28;90478;-72
2022/01/28 04:24:29;;;;;;;55.47;47.47;;;15.20;56.50;;;;;;4889637;28;91593;-72
2022/01/28 04:26:54;;;;;;;55.17;47.50;;;15.20;56.60;;;;;;4913938;28;90034;-71
2022/01/28 04:29:20;;;;;;;55.13;47.50;;;15.20;56.40;;;;;;4891644;28;92125;-71
2022/01/28 04:31:47;;;;;;;56.03;47.90;;;15.20;56.40;;;;;;4897220;28;91408;-71
2022/01/28 04:34:17;;;;;;;55.67;47.47;;;15.20;56.60;;;;;;4889882;28;91164;-71
2022/01/28 04:37:52;;;;;;;55.50;47.65;;;15.40;56.40;;;;;;4912423;28;91303;-71
2022/01/28 04:39:50;;;;;;;56.33;47.80;;;15.50;56.20;;;;;;4896050;28;90157;-72
2022/01/28 04:50:31;;;;;;;56.40;47.75;;;15.90;55.20;;;;;;4900607;28;91214;-71
2022/01/28 04:53:07;;;;;;;55.00;47.60;;;15.90;55.00;;;;;;4898061;28;92622;-71
2022/01/28 05:03:52;;;;;;;56.15;47.47;;;16.00;54.30;;;;;;4909591;28;92364;-71
2022/01/28 05:27:26;;;;;;;55.47;47.75;;;17.10;52.80;;;;;;4873948;28;95575;-71
2022/01/28 05:29:51;;;;;;;;;;;17.20;52.20;;;;;;4901264;28;90170;-72
2022/01/28 05:32:17;;;;;;;56.83;47.83;;;17.30;52.10;;;;;;4885199;28;91820;-71
2022/01/28 05:34:43;;;;;;;56.13;47.75;;;17.50;52.10;;;;;;4907046;28;93573;-72
2022/01/28 05:37:08;;;;;;;58.03;47.78;;;17.80;51.60;;;;;;4870890;28;94864;-72
2022/01/28 05:39:35;;;;;;;55.90;47.88;;;17.80;51.30;;;;;;4871238;28;91625;-72
2022/01/28 05:42:01;;;;;;;55.78;47.72;;;17.90;51.10;;;;;;4900162;28;90393;-72
2022/01/28 05:44:27;;;;;;;57.83;47.97;;;17.90;51.20;;;;;;4874542;28;90673;-71
2022/01/28 05:46:56;;;;;;;57.05;48.25;;;18.00;50.90;;;;;;4883210;28;92568;-71
2022/01/28 05:49:22;;;;;;;56.55;48.03;;;18.00;51.00;;;;;;4891008;28;91394;-72
2022/01/28 05:51:48;;;;;;;56.38;47.83;;;18.00;50.90;;;;;;4894833;28;90202;-71
2022/01/28 05:54:14;;;;;;;57.85;48.22;;;18.00;50.40;;;;;;4896204;28;91282;-71
2022/01/28 05:56:40;;;;;;;58.38;48.50;;;18.00;50.50;;;;;;4883310;28;91263;-71
2022/01/28 05:59:05;;;;;;;58.67;49.00;;;18.00;50.80;;;;;;4895893;28;95168;-70
2022/01/28 06:01:31;;;;;;;56.78;47.75;;;18.10;50.80;;;;;;4897118;28;92227;-69
2022/01/28 06:03:57;;;;;;;57.58;48.58;;;18.10;50.70;;;;;;4888920;28;92582;-71
2022/01/28 06:06:24;;;;;;;57.67;48.40;;;18.10;50.30;;;;;;4900860;28;91674;-70
2022/01/28 06:08:54;;;;;;;57.40;48.50;;;18.10;50.50;;;;;;4887792;28;91165;-71
2022/01/28 06:11:21;;;;;;;56.20;47.97;;;18.00;50.70;;;;;;4902201;28;91911;-71
2022/01/28 06:13:47;;;;;;;57.47;48.00;;;17.90;51.00;;;;;;4907060;28;95630;-70
2022/01/28 06:16:14;;;;;;;57.33;48.33;;;18.00;50.90;;;;;;4889207;28;91925;-70
2022/01/28 06:18:40;;;;;;;55.75;48.05;;;17.90;50.70;;;;;;4902756;28;90743;-70
2022/01/28 06:21:06;;;;;;;56.67;48.28;;;17.90;50.90;;;;;;4895419;28;90809;-70
2022/01/28 06:23:32;;;;;;;56.63;48.28;;;17.80;51.20;;;;;;4894482;28;91857;-70
2022/01/28 06:25:58;;;;;;;57.35;48.28;;;17.80;51.20;;;;;;4905762;28;91499;-70
2022/01/28 06:28:24;;;;;;;56.63;48.33;;;17.70;51.20;;;;;;4896499;28;89438;-70
2022/01/28 06:30:50;;;;;;;56.67;48.28;;;17.60;51.40;;;;;;4897501;28;90435;-70
2022/01/28 06:33:16;;;;;;;57.15;48.05;;;17.50;51.50;;;;;;4904819;28;91336;-71
2022/01/28 06:35:42;;;;;;;57.03;48.13;;;17.40;51.80;;;;;;4890932;28;94397;-70
2022/01/28 06:38:08;;;;;;;56.72;47.53;;;17.40;51.80;;;;;;4883865;28;91449;-71
2022/01/28 06:40:34;;;;;;;57.42;48.03;;;17.30;52.00;;;;;;4886142;28;90591;-71
2022/01/28 06:43:00;;;;;;;57.53;48.15;;;17.30;51.80;;;;;;4893156;28;91813;-71
2022/01/28 06:45:25;;;;;;;55.85;47.92;;;17.30;52.10;;;;;;4888315;28;91341;-71
2022/01/28 06:47:51;;;;;;;57.15;47.90;;;17.20;52.30;;;;;;4895988;28;90575;-71
2022/01/28 06:50:29;;;;;;;51.85;43.88;;;17.20;52.30;;;;;;3002643;28;10089847;-71
2022/01/28 06:52:55;;;;;;;57.75;48.55;;;17.20;52.50;;;;;;2504737;28;10094321;-71
2022/01/28 06:55:21;;;;;;;58.97;48.92;;;17.10;52.60;;;;;;4906403;28;91023;-70
2022/01/28 06:57:46;;;;;;;57.35;48.15;;;17.10;52.70;;;;;;4904024;28;91782;-71
2022/01/28 07:00:13;;;;;;;59.28;48.33;;;17.00;52.80;;;;;;4894451;28;91351;-71
2022/01/28 07:02:39;;;;;;;56.38;47.95;;;16.90;52.90;;;;;;4901926;28;91805;-71
2022/01/28 07:05:05;;;;;;;56.25;48.20;;;16.90;53.00;;;;;;4902027;28;90392;-72
2022/01/28 07:07:33;;;;;;;57.75;48.15;;;16.90;52.80;;;;;;4887579;28;90077;-71
2022/01/28 07:09:59;;;;;;;59.33;48.40;;;16.80;53.00;;;;;;4899162;28;94590;-71
2022/01/28 07:12:24;;;;;;;59.03;48.58;;;16.90;53.20;;;;;;4895423;28;90484;-72
2022/01/28 07:14:50;;;;;;;56.08;48.03;;;17.00;53.20;;;;;;4895572;28;90460;-72
2022/01/28 07:17:16;;;;;;;57.53;48.70;;;17.10;52.70;;;;;;4889976;28;93539;-72
2022/01/28 07:19:42;;;;;;;57.30;48.40;;;17.10;52.50;;;;;;4906779;28;95844;-72
2022/01/28 07:22:08;;;;;;;58.08;48.53;;;17.10;52.40;;;;;;4911275;28;91083;-72
2022/01/28 07:24:34;;;;;;;58.25;47.95;;;17.20;52.40;;;;;;4907464;28;92758;-71
2022/01/28 07:27:00;;;;;;;56.85;48.22;;;17.30;52.10;;;;;;4895903;28;91176;-71
2022/01/28 07:29:29;;;;;;;58.65;48.75;;;17.30;52.40;;;;;;4907384;28;91343;-70
2022/01/28 07:31:55;;;;;;;56.55;47.97;;;17.20;52.00;;;;;;4902328;28;91000;-71
2022/01/28 07:34:21;;;;;;;59.20;48.25;;;17.30;52.20;;;;;;4898967;28;91970;-70
2022/01/28 07:36:48;;;;;;;60.30;48.53;;;17.40;52.20;;;;;;4915799;28;91912;-71
2022/01/28 07:39:13;;;;;;;57.75;48.22;;;17.40;52.30;;;;;;4912616;28;90691;-71
2022/01/28 07:41:39;;;;;;;57.90;48.13;;;17.40;52.30;;;;;;4922086;28;92715;-71
2022/01/28 07:44:06;;;;;;;60.45;48.35;;;17.40;52.30;;;;;;4905331;28;91230;-70
2022/01/28 07:46:32;;;;;;;57.83;48.42;;;17.30;52.50;;;;;;4907374;28;91450;-70
2022/01/28 07:48:57;;;;;;;57.60;48.25;;;17.40;52.20;;;;;;4896965;28;92912;-71
2022/01/28 07:51:23;;;;;;;60.28;48.83;;;17.40;52.40;;;;;;4907577;28;90959;-71
2022/01/28 07:53:49;;;;;;;59.58;48.25;;;17.40;52.30;;;;;;4891254;28;90921;-71
2022/01/28 07:56:15;;;;;;;57.45;48.28;;;17.30;52.30;;;;;;4891707;28;92354;-70
2022/01/28 07:58:41;;;;;;;57.83;48.67;;;17.30;52.40;;;;;;4912397;28;90761;-71
2022/01/28 08:01:07;;;;;;;57.83;48.22;;;17.20;52.70;;;;;;4929617;28;92424;-70
2022/01/28 08:03:32;;;;;;;59.47;48.58;;;17.20;52.90;;;;;;4915929;28;90476;-70
2022/01/28 08:05:58;;;;;;;59.28;48.47;;;17.20;52.70;;;;;;4912865;28;90413;-71
2022/01/28 08:08:24;;;;;;;61.00;48.55;;;17.10;52.90;;;;;;4921441;28;91519;-70
2022/01/28 08:10:49;;;;;;;61.63;48.33;;;17.10;53.50;;;;;;4901073;28;91489;-71
2022/01/28 08:13:16;;;;;;;58.05;48.50;;;17.10;53.00;;;;;;4873501;28;93417;-69
2022/01/28 08:15:41;;;;;;;62.30;48.63;;;17.00;53.20;;;;;;4905658;28;91066;-71
2022/01/28 08:18:08;;;;;;;59.22;48.45;;;17.10;53.30;;;;;;4905044;28;90848;-70
2022/01/28 08:20:34;;;;;;;62.13;48.55;;;17.00;53.00;;;;;;4916942;28;90767;-71
2022/01/28 08:23:01;;;;;;;58.78;48.95;;;17.10;53.00;;;;;;4915797;28;90495;-72
2022/01/28 08:25:34;;;;;;;61.85;48.67;;;17.20;52.90;;;;;;4906998;28;89585;-71
2022/01/28 08:28:02;;;;;;;60.67;48.33;;;17.20;52.80;;;;;;4921369;28;91890;-69
2022/01/28 08:30:29;;;;;;;62.90;48.88;;;17.30;52.60;;;;;;4904322;28;92454;-71
2022/01/28 08:32:55;;;;;;;62.60;48.65;;;17.40;52.50;;;;;;4919742;28;92213;-71
2022/01/28 08:35:29;;;;;;;59.53;48.45;;;17.50;52.30;;;;;;4898898;28;90057;-71
2022/01/28 08:37:56;;;;;;;61.55;48.33;;;17.60;51.90;;;;;;4913268;28;91283;-72
2022/01/28 08:40:23;;;;;;;59.53;48.35;;;17.70;51.90;;;;;;4908608;28;92049;-71
2022/01/28 08:42:52;;;;;;;61.90;48.60;;;17.80;51.70;;;;;;4887746;28;90260;-69
2022/01/28 08:45:17;;;;;;;64.32;52.60;;;17.80;51.60;;;;;;4921210;28;91864;-72
2022/01/28 08:47:43;;;;;;;63.85;50.80;;;17.00;42.30;;;;;;4918800;28;92497;-72
2022/01/28 08:50:10;;;;;;;59.05;50.35;;;15.50;44.80;;;;;;4901091;28;90344;-73
2022/01/28 08:52:39;;;;;;;60.63;50.47;;;14.30;47.70;;;;;;4916293;28;90538;-75
2022/01/28 08:55:06;;;;;;;54.97;48.90;;;13.50;49.80;;;;;;4905601;28;89266;-73
2022/01/28 08:57:31;;;;;;;59.80;50.10;;;12.80;51.40;;;;;;4923667;28;88942;-74
2022/01/28 08:59:57;;;;;;;56.03;50.08;;;12.40;52.70;;;;;;4911508;28;91307;-74
2022/01/28 09:02:23;;;;;;;56.85;49.63;;;12.10;53.80;;;;;;4924000;28;90524;-75
2022/01/28 09:04:49;;;;;;;55.77;49.67;;;11.80;54.60;;;;;;4917566;28;91121;-73
2022/01/28 09:07:18;;;;;;;55.60;49.57;;;11.70;55.30;;;;;;4910837;28;91318;-72
2022/01/28 09:09:49;;;;;;;55.93;49.77;;;11.50;55.40;;;;;;4918827;28;89975;-73
2022/01/28 09:12:38;;;;;;;57.65;49.70;;;11.30;55.90;;;;;;4914843;28;89926;-73
2022/01/28 09:15:05;;;;;;;55.43;49.63;;;11.10;56.40;;;;;;4917798;28;89660;-73
2022/01/28 09:17:31;;;;;;;56.77;50.67;;;11.00;57.00;;;;;;4912723;28;93837;-73
2022/01/28 09:19:57;;;;;;;59.67;50.07;;;10.90;57.30;;;;;;4918483;28;89162;-74
2022/01/28 09:22:23;;;;;;;55.77;49.70;;;10.80;58.00;;;;;;4919034;28;89245;-74
2022/01/28 09:24:48;;;;;;;62.23;49.73;;;10.70;58.60;;;;;;4914825;28;89662;-75
2022/01/28 09:27:14;;;;;;;60.77;50.03;;;10.60;59.30;;;;;;4926922;28;90331;-74
2022/01/28 09:29:40;;;;;;;55.97;50.03;;;10.70;59.60;;;;;;4923065;28;90289;-74
2022/01/28 09:32:07;;;;;;;57.13;50.87;;;10.70;59.40;;;;;;4889983;28;92073;-73
2022/01/28 09:34:33;;;;;;;67.20;53.10;;;10.70;60.90;;;;;;4908097;28;91434;-76
2022/01/28 09:36:59;;;;;;;59.20;52.67;;;10.70;61.80;;;;;;4911963;28;90579;-75
2022/01/28 09:39:25;;;;;;;61.83;54.03;;;10.70;62.20;;;;;;4903844;28;90347;-75
2022/01/28 09:41:59;;;;;;;58.83;52.37;;;10.70;62.40;;;;;;4899771;28;90010;-76
2022/01/28 09:44:28;;;;;;;58.17;51.90;;;10.70;62.10;;;;;;4888067;28;89930;-75
2022/01/28 09:46:54;;;;;;;62.40;52.73;;;10.70;62.10;;;;;;4892721;28;92563;-79
2022/01/28 09:49:20;;;;;;;64.27;54.17;;;10.70;62.60;;;;;;4897933;28;90919;-75
2022/01/28 09:51:46;;;;;;;61.37;52.70;;;10.80;62.50;;;;;;4883025;28;92053;-76
2022/01/28 09:54:11;;;;;;;60.97;53.60;;;10.80;62.90;;;;;;4910203;28;90644;-74
2022/01/28 09:56:57;;;;;;;56.55;47.57;;;10.80;63.00;;;;;;1863270;28;10100885;-76
2022/01/28 09:59:25;;;;;;;62.63;53.07;;;10.80;63.10;;;;;;3887089;28;10093093;-76
2022/01/28 10:01:58;;;;;;;60.33;51.70;;;10.70;64.40;;;;;;4901746;28;90636;-74
2022/01/28 10:04:26;;;;;;;57.28;49.15;;;10.80;65.40;;;;;;4891940;28;93041;-75
2022/01/28 10:07:16;;;;;;;62.30;49.08;;;11.50;71.80;;;;;;4897058;28;90857;-75
2022/01/28 10:10:03;;;;;;;57.90;49.28;;;12.30;69.90;;;;;;4920871;28;88894;-75
2022/01/28 10:13:10;;;;;;;63.40;50.00;;;13.00;66.40;;;;;;4885874;28;91348;-77
2022/01/28 10:15:50;;;;;;;64.68;50.60;;;13.50;64.30;;;;;;4891740;28;92477;-75
2022/01/28 10:18:16;;;;;;;63.30;50.78;;;14.00;62.80;;;;;;4902001;28;92237;-75
2022/01/28 10:20:45;;;;;;;69.15;50.92;;;14.30;61.30;;;;;;4921366;28;90470;-75
2022/01/28 10:23:18;;;;;;;69.70;51.72;;;14.60;60.10;;;;;;4878261;28;91259;-76
2022/01/28 10:25:44;;;;;;;68.90;51.47;;;14.80;59.30;;;;;;4889770;28;93283;-75
2022/01/28 10:28:12;;;;;;;68.18;51.38;;;15.10;58.50;;;;;;4883665;28;91422;-75
2022/01/28 10:30:43;;;;;;;64.32;51.70;;;15.20;57.80;;;;;;4865669;28;90736;-76
2022/01/28 10:33:21;;;;;;;64.15;51.30;;;15.40;57.30;;;;;;4891607;28;90389;-76
2022/01/28 10:36:03;;;;;;;68.10;51.28;;;15.60;56.70;;;;;;4884279;28;91698;-76
2022/01/28 10:38:35;;;;;;;69.25;52.13;;;15.80;56.30;;;;;;4866138;28;94188;-76
2022/01/28 10:41:12;;;;;;;67.60;52.00;;;15.90;56.20;;;;;;4882542;28;90871;-76
2022/01/28 10:43:47;;;;;;;65.75;51.63;;;16.00;55.80;;;;;;4874949;28;93326;-75
2022/01/28 10:46:23;;;;;;;68.50;51.30;;;16.20;55.60;;;;;;4890193;28;92065;-77
2022/01/28 10:48:54;;;;;;;69.57;51.75;;;16.30;55.20;;;;;;4887778;28;90898;-76
2022/01/28 10:51:52;;;;;;;71.40;51.28;;;16.40;54.90;;;;;;4883154;28;90511;-76
2022/01/28 10:55:01;;;;;;;68.05;51.17;;;16.50;54.70;;;;;;4860676;28;92214;-77
2022/01/28 10:57:32;;;;;;;70.78;51.75;;;16.60;54.40;;;;;;4883921;28;90823;-76
2022/01/28 10:59:58;;;;;;;70.85;52.03;;;16.70;54.40;;;;;;4866746;28;90667;-75
2022/01/28 11:02:32;;;;;;;67.97;51.80;;;16.80;54.20;;;;;;4887173;28;90039;-75
2022/01/28 11:04:58;;;;;;;67.97;51.90;;;16.80;54.00;;;;;;4886855;28;92270;-73
2022/01/28 11:07:27;;;;;;;75.80;52.63;;;16.90;53.80;;;;;;4888095;28;92718;-74
2022/01/28 11:09:53;;;;;;;70.13;52.17;;;16.90;53.70;;;;;;4897187;28;92806;-74
2022/01/28 11:12:19;;;;;;;80.03;52.63;;;17.00;53.50;;;;;;4897644;28;91678;-75
2022/01/28 11:14:45;;;;;;;70.47;52.78;;;17.00;53.30;;;;;;4913217;28;91337;-75
2022/01/28 11:17:16;;;;;;;70.28;52.45;;;17.10;53.30;;;;;;4918567;28;90152;-75
2022/01/28 11:19:43;;;;;;;71.97;52.90;;;17.10;53.10;;;;;;4913152;28;91538;-75
2022/01/28 11:22:32;;;;;;;70.57;53.42;;;17.20;53.00;;;;;;4902635;28;90434;-73
2022/01/28 11:25:36;;;;;;;73.20;53.50;;;17.20;52.80;;;;;;4904443;28;91500;-74
2022/01/28 11:28:13;;;;;;;68.15;53.03;;;17.20;52.40;;;;;;4913543;28;90275;-76
2022/01/28 11:30:47;;;;;;;72.07;53.65;;;17.30;52.30;;;;;;4910794;28;90203;-76
2022/01/28 11:33:13;;;;;;;69.35;53.13;;;17.30;52.20;;;;;;4903323;28;91010;-76
2022/01/28 11:35:40;;;;;;;79.32;53.47;;;17.30;52.20;;;;;;4886557;28;92111;-75
2022/01/28 11:38:37;;;;;;;77.50;53.95;;;17.30;52.40;;;;;;4882382;28;92193;-75
2022/01/28 11:41:21;;;;;;;74.50;53.50;;;17.30;52.20;;;;;;4874300;28;91068;-75
2022/01/28 11:44:23;;;;;;;71.68;52.38;;;17.30;52.20;;;;;;4892064;28;91169;-75
2022/01/28 11:47:16;;;;;;;74.93;53.60;;;17.40;52.20;;;;;;4897074;28;91511;-75
2022/01/28 11:50:33;;;;;;;76.55;54.15;;;17.40;52.20;;;;;;4887510;28;91654;-77
2022/01/28 12:04:21;;;;;;;75.78;53.25;;;17.50;52.20;;;;;;4872860;28;91071;-76
2022/01/28 12:31:22;;;;;;;74.22;53.58;;;17.60;53.70;;;;;;4820372;28;90690;-77
2022/01/28 12:33:52;;;;;;;76.95;53.83;;;17.60;55.40;;;;;;4871284;28;90496;-77
2022/01/28 12:36:30;;;;;;;72.15;54.10;;;17.70;56.70;;;;;;4903167;28;90890;-76
2022/01/28 12:39:10;;;;;;;75.13;53.80;;;17.70;57.80;;;;;;4896657;28;91781;-77
2022/01/28 12:42:04;;;;;;;72.50;53.50;;;17.70;58.90;;;;;;4910608;28;92775;-76
2022/01/28 12:44:32;;;;;;;73.75;54.53;;;17.80;59.90;;;;;;4896329;28;89771;-77
2022/01/28 12:47:09;;;;;;;73.05;54.20;;;17.80;60.20;;;;;;4870967;28;91387;-77
2022/01/28 12:49:36;;;;;;;73.85;54.20;;;17.80;59.90;;;;;;4895651;28;91787;-78
2022/01/28 12:52:08;;;;;;;75.90;52.85;;;17.80;59.40;;;;;;4896481;28;91745;-77
2022/01/28 12:54:45;;;;;;;73.50;53.95;;;17.80;59.10;;;;;;4903248;28;94009;-76
2022/01/28 12:57:19;;;;;;;69.18;53.40;;;17.80;58.60;;;;;;4895751;28;89951;-76
2022/01/28 12:59:46;;;;;;;73.82;53.72;;;17.70;57.60;;;;;;4878002;28;91314;-76
2022/01/28 13:02:13;;;;;;;73.57;54.20;;;17.70;57.10;;;;;;4887746;28;92885;-76
2022/01/28 13:10:19;;;;;;;69.78;52.60;;;17.70;56.40;;;;;;4886006;28;93680;-76
2022/01/28 13:12:45;;;;;;;65.30;52.00;;;17.70;56.30;;;;;;4909375;28;93049;-75
2022/01/28 13:15:15;;;;;;;71.93;52.60;;;17.70;56.00;;;;;;4885148;28;96697;-76
2022/01/28 13:17:54;;;;;;;71.03;52.90;;;17.60;56.00;;;;;;4878813;28;94440;-78
2022/01/28 13:20:23;;;;;;;67.07;51.58;;;17.70;55.90;;;;;;4853831;28;92984;-77
2022/01/28 13:22:51;;;;;;;67.25;52.22;;;17.70;55.90;;;;;;4878320;28;92268;-78
2022/01/28 13:25:23;;;;;;;68.32;52.05;;;17.70;55.80;;;;;;4861867;28;90979;-78
2022/01/28 13:27:54;;;;;;;67.45;52.00;;;17.70;55.70;;;;;;4887532;28;92166;-78
2022/01/28 13:30:20;;;;;;;71.68;51.88;;;17.70;55.60;;;;;;4866373;28;94178;-78
2022/01/28 13:32:55;;;;;;;70.97;51.88;;;17.70;55.40;;;;;;4884169;28;91797;-78
2022/01/28 13:35:23;;;;;;;68.13;51.97;;;17.70;55.30;;;;;;4853621;28;91371;-78
2022/01/28 13:37:58;;;;;;;68.97;51.90;;;17.60;55.30;;;;;;4876438;28;90468;-77
2022/01/28 13:40:24;;;;;;;67.18;51.65;;;17.70;55.30;;;;;;4874561;28;92709;-77
2022/01/28 13:43:29;;;;;;;67.05;51.47;;;17.70;55.30;;;;;;4881037;28;92942;-80
2022/01/28 13:46:47;;;;;;;67.97;51.65;;;17.70;55.30;;;;;;4883294;28;89801;-80
2022/01/28 14:53:19;;;;;;;62.85;49.95;;;17.60;53.70;;;;;;4704236;29;91056;-80
2022/01/28 15:00:18;;;;;;;61.90;49.75;;;17.60;53.60;;;;;;4693982;29;89785;-80
2022/01/28 15:39:38;;;;;;;;;;;;;;;;;;;;;
2022/01/28 15:43:15;;;;;;;;;;;;;;;;;;;;;
2022/01/28 16:00:42;;;;;;;59.40;49.30;;;17.40;53.20;;;;;;4792805;28;91850;-80
2022/01/28 16:20:40;;;;;;;63.03;49.50;;;17.30;53.20;;;;;;4861193;28;92771;-80
2022/01/28 16:23:07;;;;;;;67.20;49.70;;;17.30;54.00;;;;;;4923953;28;93336;-78
2022/01/28 16:25:35;;;;;;;64.57;49.55;;;17.30;53.40;;;;;;4914076;28;94690;-78
2022/01/28 16:28:00;;;;;;;64.03;49.88;;;17.30;53.80;;;;;;4913424;28;97258;-77
2022/01/28 16:34:40;;;;;;;64.70;49.77;;;17.30;54.50;;;;;;4854088;28;92364;-78
2022/01/28 16:40:53;;;;;;;67.05;49.75;;;17.70;54.40;;;;;;4941317;28;90468;-77
2022/01/28 16:44:49;;;;;;;70.22;50.38;;;18.00;54.10;;;;;;4920749;28;91129;-79
2022/01/28 16:47:13;;;;;;;68.45;50.03;;;18.30;53.60;;;;;;4908184;28;89985;-78
2022/01/28 16:49:53;;;;;;;68.18;50.38;;;18.60;53.10;;;;;;4926625;28;97823;-78
2022/01/28 16:52:22;;;;;;;65.70;50.67;;;18.90;52.60;;;;;;4937839;28;91853;-78
2022/01/28 16:54:50;;;;;;;64.35;50.65;;;19.10;52.10;;;;;;4922011;28;91385;-77
2022/01/28 16:57:24;;;;;;;67.93;50.83;;;19.40;51.60;;;;;;4947232;28;91967;-77
2022/01/28 17:00:26;;;;;;;;;;;;;;;;;;;;;
2022/01/28 17:03:11;;;;;;;66.88;51.40;;;19.80;50.60;;;;;;4925064;28;119597;-79
2022/01/28 17:05:37;;;;;;;63.92;50.95;;;20.00;49.70;;;;;;4914980;28;92708;-77
2022/01/28 17:08:02;;;;;;;63.53;51.17;;;20.10;49.50;;;;;;4931310;28;92111;-78
2022/01/28 17:10:43;;;;;;;68.85;52.00;;;20.30;49.40;;;;;;4920472;28;90902;-75
2022/01/28 17:13:10;;;;;;;65.22;51.08;;;20.40;49.20;;;;;;4932977;28;91734;-80
2022/01/28 17:15:38;;;;;;;65.00;51.05;;;20.50;48.90;;;;;;4936397;28;97456;-80
2022/01/28 17:18:07;;;;;;;67.30;51.45;;;20.60;48.60;;;;;;4948582;28;90569;-80
2022/01/28 17:21:11;;;;;;;70.00;51.42;;;20.60;48.30;;;;;;4887482;28;100042;-80
2022/01/28 17:24:01;;;;;;;65.88;50.63;;;20.80;48.20;;;;;;4936853;28;92552;-80
2022/01/28 17:29:50;;;;;;;66.65;51.17;;;20.90;47.80;;;;;;4939079;28;93987;-79
2022/01/28 17:32:31;;;;;;;66.07;51.53;;;21.10;47.60;;;;;;2824802;28;10089948;-78
2022/01/28 17:34:57;;;;;;;65.38;51.55;;;21.10;47.30;;;;;;2541653;28;10093125;-78
2022/01/28 17:37:27;;;;;;;63.03;50.95;;;21.10;47.20;;;;;;4947896;28;92308;-78